Terminal Aerodrome Forecast
Issued by NWS

Home | Current Version | Previous Version | Text Only | Print | Product List | Glossary On
Versions: 1 2 3 4 5 6 7 8 9 10 11 12 13 14 15 16
000
FTUS46 KLOX 202340
TAFOXR
TAF
KOXR 202340Z 2100/2124 26023G33KT P6SM SKC
     FM210300 30017G22KT P6SM SKC
     FM210500 33012KT P6SM SKC
     FM210900 05010G15KT P6SM SKC
     FM212100 29011KT P6SM SKC=

USA.gov is the U.S. government's official web portal to all federal, state and local government web resources and services.